Time;durP1;ratioP1;P1;durP2;ratioP2;P2;SDS_P1;SDS_P2;PMS_P1;PMS_P2;Temp;Humidity;BMP_temperature;BMP_pressure;BME280_temperature;BME280_humidity;BME280_pressure;Samples;Min_cycle;Max_cycle;Signal;HPM_P1;HPM_P2
2023/06/11 00:01:00;;;;;;;5.10;4.80;;;;;;;;;;5035366;28;20029;-72
2023/06/11 00:03:25;;;;;;;5.10;4.68;;;;;;;;;;5051583;28;20049;-73
2023/06/11 00:05:52;;;;;;;5.32;4.82;;;;;;;;;;5053074;28;20035;-73
2023/06/11 00:08:17;;;;;;;5.40;5.10;;;;;;;;;;5054400;28;20044;-73
2023/06/11 00:10:43;;;;;;;6.28;5.30;;;;;;;;;;5055979;28;20029;-72
2023/06/11 00:13:08;;;;;;;5.40;4.90;;;;;;;;;;5056348;28;20055;-73
2023/06/11 00:15:33;;;;;;;6.55;5.32;;;;;;;;;;5056311;28;20079;-73
2023/06/11 00:18:01;;;;;;;5.50;4.88;;;;;;;;;;5056536;28;20495;-73
2023/06/11 00:20:27;;;;;;;5.55;5.10;;;;;;;;;;5056542;28;20435;-72
2023/06/11 00:22:53;;;;;;;5.47;5.07;;;;;;;;;;5056022;28;20449;-73
2023/06/11 00:25:18;;;;;;;5.32;4.93;;;;;;;;;;5056585;28;20044;-73
2023/06/11 00:27:43;;;;;;;5.68;5.28;;;;;;;;;;5056656;28;20368;-72
2023/06/11 00:30:09;;;;;;;5.75;5.30;;;;;;;;;;5056411;28;20103;-72
2023/06/11 00:32:38;;;;;;;5.90;5.40;;;;;;;;;;5056084;28;20036;-74
2023/06/11 00:35:08;;;;;;;5.77;5.27;;;;;;;;;;5053355;28;20116;-73
2023/06/11 00:37:35;;;;;;;6.03;5.63;;;;;;;;;;5070727;28;20064;-72
2023/06/11 00:40:01;;;;;;;6.50;5.90;;;;;;;;;;5055596;28;20037;-73
2023/06/11 00:42:27;;;;;;;6.75;6.13;;;;;;;;;;5056001;28;20040;-72
2023/06/11 00:44:54;;;;;;;7.05;6.47;;;;;;;;;;5056009;28;20040;-72
2023/06/11 00:47:19;;;;;;;6.97;6.47;;;;;;;;;;5054600;28;20032;-72
2023/06/11 00:49:45;;;;;;;7.50;6.78;;;;;;;;;;5056299;28;20078;-73
2023/06/11 00:52:13;;;;;;;6.57;6.15;;;;;;;;;;5055690;28;20029;-72
2023/06/11 00:54:39;;;;;;;6.63;6.10;;;;;;;;;;5054667;28;20100;-73
2023/06/11 00:57:06;;;;;;;7.20;6.63;;;;;;;;;;5054707;28;20120;-73
2023/06/11 00:59:33;;;;;;;7.90;7.20;;;;;;;;;;5054229;28;20117;-73
2023/06/11 01:02:05;;;;;;;7.13;6.47;;;;;;;;;;5055213;28;20493;-75
2023/06/11 01:04:32;;;;;;;7.28;6.72;;;;;;;;;;5070850;28;20033;-75
2023/06/11 01:07:00;;;;;;;7.63;7.07;;;;;;;;;;5054481;28;20049;-75
2023/06/11 01:09:27;;;;;;;7.28;6.78;;;;;;;;;;5054165;28;20025;-74
2023/06/11 01:11:55;;;;;;;7.47;6.88;;;;;;;;;;5037165;28;20020;-75
2023/06/11 01:14:20;;;;;;;8.57;7.40;;;;;;;;;;5053779;28;20388;-74
2023/06/11 01:16:52;;;;;;;8.52;7.63;;;;;;;;;;5070384;28;20040;-72
2023/06/11 01:19:37;;;;;;;7.55;6.82;;;;;;;;;;5055076;28;20036;-72
2023/06/11 01:22:19;;;;;;;8.03;7.33;;;;;;;;;;5070592;28;20032;-72
2023/06/11 01:24:59;;;;;;;7.80;7.20;;;;;;;;;;5054262;28;20078;-72
2023/06/11 01:27:40;;;;;;;7.15;6.50;;;;;;;;;;5038079;28;20047;-72
2023/06/11 01:30:07;;;;;;;6.78;6.30;;;;;;;;;;5053593;28;20025;-72
2023/06/11 01:32:36;;;;;;;8.23;7.35;;;;;;;;;;5070093;28;20032;-72
2023/06/11 01:35:04;;;;;;;8.02;7.32;;;;;;;;;;5070325;28;20029;-72
2023/06/11 01:37:45;;;;;;;8.00;7.40;;;;;;;;;;5053735;28;20440;-72
2023/06/11 01:40:12;;;;;;;7.70;7.10;;;;;;;;;;5070538;28;20032;-72
2023/06/11 01:42:44;;;;;;;8.85;7.82;;;;;;;;;;5070629;28;20091;-72
2023/06/11 01:45:11;;;;;;;8.32;7.63;;;;;;;;;;5069897;28;20029;-72
2023/06/11 01:47:36;;;;;;;8.45;7.60;;;;;;;;;;5070312;28;20047;-73
2023/06/11 01:50:03;;;;;;;8.63;7.82;;;;;;;;;;5053208;28;20025;-72
2023/06/11 01:52:28;;;;;;;9.15;8.35;;;;;;;;;;5055022;28;20170;-74
2023/06/11 01:54:53;;;;;;;8.90;8.10;;;;;;;;;;5054844;28;20036;-74
2023/06/11 01:57:19;;;;;;;8.70;8.00;;;;;;;;;;5054860;28;20033;-74
2023/06/11 01:59:44;;;;;;;8.70;7.90;;;;;;;;;;5069889;28;20562;-74
2023/06/11 02:02:10;;;;;;;8.57;7.78;;;;;;;;;;5070057;28;20461;-73
2023/06/11 02:04:35;;;;;;;8.65;7.85;;;;;;;;;;5053483;28;20415;-74
2023/06/11 02:07:01;;;;;;;9.18;8.30;;;;;;;;;;5052859;28;20376;-74
2023/06/11 02:09:26;;;;;;;9.73;8.88;;;;;;;;;;5069462;28;20112;-74
2023/06/11 02:11:52;;;;;;;8.70;7.82;;;;;;;;;;5053066;28;20349;-74
2023/06/11 02:14:17;;;;;;;8.20;7.45;;;;;;;;;;5036605;28;20087;-74
2023/06/11 02:16:43;;;;;;;8.30;7.50;;;;;;;;;;5070123;28;20025;-73
2023/06/11 02:19:08;;;;;;;9.20;8.43;;;;;;;;;;5068878;28;20095;-73
2023/06/11 02:21:33;;;;;;;9.23;8.15;;;;;;;;;;5053781;28;20384;-72
2023/06/11 02:23:59;;;;;;;10.23;8.18;;;;;;;;;;5069484;28;20029;-72
2023/06/11 02:26:25;;;;;;;9.13;8.27;;;;;;;;;;5052510;28;20496;-73
2023/06/11 02:28:51;;;;;;;9.07;8.05;;;;;;;;;;5051976;28;20075;-72
2023/06/11 02:31:17;;;;;;;8.93;8.13;;;;;;;;;;5052509;28;20021;-72
2023/06/11 02:33:42;;;;;;;9.05;8.15;;;;;;;;;;5069043;28;20029;-73
2023/06/11 02:36:08;;;;;;;8.55;7.70;;;;;;;;;;5052391;28;20021;-73
2023/06/11 02:38:33;;;;;;;8.98;7.28;;;;;;;;;;5069032;28;20488;-72
2023/06/11 02:40:59;;;;;;;8.77;7.97;;;;;;;;;;5069043;28;20186;-73
2023/06/11 02:43:25;;;;;;;8.15;7.45;;;;;;;;;;5053492;28;20431;-72
2023/06/11 02:45:50;;;;;;;8.85;7.95;;;;;;;;;;5052267;28;20021;-73
2023/06/11 02:48:15;;;;;;;8.00;7.30;;;;;;;;;;5053539;28;20078;-73
2023/06/11 02:50:41;;;;;;;9.30;8.20;;;;;;;;;;5053556;28;20040;-73
2023/06/11 02:53:06;;;;;;;8.88;7.68;;;;;;;;;;5053961;28;20067;-73
2023/06/11 02:55:32;;;;;;;9.02;8.10;;;;;;;;;;5052127;28;20027;-73
2023/06/11 02:57:57;;;;;;;8.82;8.00;;;;;;;;;;5069451;28;20090;-73
2023/06/11 03:00:22;;;;;;;9.70;8.70;;;;;;;;;;5053453;28;20021;-73
2023/06/11 03:02:48;;;;;;;8.38;7.75;;;;;;;;;;5069174;28;20488;-73
2023/06/11 03:05:18;;;;;;;7.78;7.00;;;;;;;;;;5036283;28;20364;-73
2023/06/11 03:07:43;;;;;;;8.85;7.68;;;;;;;;;;5069777;28;20029;-74
2023/06/11 03:10:09;;;;;;;8.52;7.57;;;;;;;;;;5068994;28;20104;-75
2023/06/11 03:12:34;;;;;;;9.07;8.20;;;;;;;;;;5052615;28;20024;-75
2023/06/11 03:14:59;;;;;;;7.32;6.63;;;;;;;;;;5035764;28;20029;-75
2023/06/11 03:17:25;;;;;;;7.93;7.22;;;;;;;;;;5069279;28;20123;-74
2023/06/11 03:19:51;;;;;;;8.07;7.03;;;;;;;;;;5035639;28;20076;-74
2023/06/11 03:22:17;;;;;;;8.05;7.10;;;;;;;;;;5068867;28;20124;-73
2023/06/11 03:24:42;;;;;;;7.45;6.85;;;;;;;;;;5052376;28;20475;-72
2023/06/11 03:27:23;;;;;;;7.78;7.18;;;;;;;;;;5037607;28;20377;-73
2023/06/11 03:29:48;;;;;;;9.00;7.18;;;;;;;;;;5068798;28;20033;-74
2023/06/11 03:32:14;;;;;;;8.40;7.28;;;;;;;;;;5069104;28;20029;-72
2023/06/11 03:34:43;;;;;;;7.75;7.15;;;;;;;;;;5068813;28;20468;-72
2023/06/11 03:37:08;;;;;;;7.68;6.88;;;;;;;;;;5068915;28;20033;-73
2023/06/11 03:39:34;;;;;;;8.55;7.75;;;;;;;;;;5051716;28;20039;-73
2023/06/11 03:42:00;;;;;;;7.57;7.00;;;;;;;;;;5038547;28;20060;-72
2023/06/11 03:44:28;;;;;;;8.45;7.50;;;;;;;;;;5072759;28;20365;-73
2023/06/11 03:46:54;;;;;;;11.82;7.72;;;;;;;;;;5055584;28;20025;-73
2023/06/11 03:49:21;;;;;;;7.57;6.72;;;;;;;;;;5072139;28;20025;-73
2023/06/11 03:51:46;;;;;;;7.60;7.00;;;;;;;;;;5072312;28;20480;-73
2023/06/11 03:54:13;;;;;;;8.60;7.05;;;;;;;;;;5072306;28;20241;-73
2023/06/11 03:56:38;;;;;;;9.30;7.28;;;;;;;;;;5057221;28;20036;-73
2023/06/11 03:59:05;;;;;;;8.23;7.00;;;;;;;;;;5055487;28;20025;-73
2023/06/11 04:01:30;;;;;;;8.40;7.63;;;;;;;;;;5057233;28;20029;-73
2023/06/11 04:03:57;;;;;;;9.70;7.38;;;;;;;;;;5054162;28;20495;-66
2023/06/11 04:09:11;;;;;;;7.60;7.00;;;;;;;;;;5062010;22;20064;-63
2023/06/11 04:11:36;;;;;;;8.13;7.43;;;;;;;;;;5036019;28;20029;-63
2023/06/11 04:14:01;;;;;;;7.75;6.93;;;;;;;;;;5035672;28;20025;-64
2023/06/11 04:16:27;;;;;;;7.97;7.28;;;;;;;;;;5035084;28;20436;-64
2023/06/11 04:18:52;;;;;;;8.48;7.78;;;;;;;;;;5035013;28;20064;-63
2023/06/11 04:21:18;;;;;;;7.45;6.93;;;;;;;;;;5036756;28;20033;-64
2023/06/11 04:23:43;;;;;;;8.38;7.15;;;;;;;;;;5034815;28;20021;-62
2023/06/11 04:26:10;;;;;;;7.45;6.75;;;;;;;;;;5034885;28;20025;-62
2023/06/11 04:28:40;;;;;;;7.35;6.80;;;;;;;;;;5035125;28;20419;-63
2023/06/11 04:31:07;;;;;;;7.88;7.18;;;;;;;;;;5034781;28;20021;-62
2023/06/11 04:33:36;;;;;;;8.23;7.60;;;;;;;;;;5034757;28;20025;-63
2023/06/11 04:36:07;;;;;;;7.35;6.75;;;;;;;;;;5034955;28;20217;-61
2023/06/11 04:38:34;;;;;;;8.05;7.30;;;;;;;;;;5051823;28;20135;-62
2023/06/11 04:41:00;;;;;;;7.32;6.72;;;;;;;;;;5034590;28;20022;-62
2023/06/11 04:43:27;;;;;;;8.05;7.25;;;;;;;;;;5034496;28;20041;-63
2023/06/11 04:45:56;;;;;;;7.60;6.82;;;;;;;;;;5034599;28;20021;-67
2023/06/11 04:48:23;;;;;;;;;;;;;;;;;;5034915;28;20029;-62
2023/06/11 04:50:51;;;;;;;7.77;6.97;;;;;;;;;;5034098;28;20024;-67
2023/06/11 04:53:21;;;;;;;7.45;6.75;;;;;;;;;;5017762;28;20287;-64
2023/06/11 04:55:54;;;;;;;7.88;7.18;;;;;;;;;;5016008;28;20477;-64
2023/06/11 04:58:27;;;;;;;7.82;7.13;;;;;;;;;;5014172;28;20034;-67
2023/06/11 05:00:56;;;;;;;7.95;7.25;;;;;;;;;;5014772;28;20030;-66
2023/06/11 05:03:24;;;;;;;7.82;7.05;;;;;;;;;;5015025;28;20030;-61
2023/06/11 05:05:50;;;;;;;7.55;6.95;;;;;;;;;;5014328;28;20034;-61
2023/06/11 05:08:28;;;;;;;9.95;6.78;;;;;;;;;;5014118;28;20038;-61
2023/06/11 05:10:57;;;;;;;7.60;6.78;;;;;;;;;;5015709;28;20108;-62
2023/06/11 05:13:26;;;;;;;7.03;6.32;;;;;;;;;;5014193;28;20370;-61
2023/06/11 05:15:55;;;;;;;8.15;6.55;;;;;;;;;;5014261;28;20033;-62
2023/06/11 05:18:21;;;;;;;7.15;6.60;;;;;;;;;;5014150;28;20030;-62
2023/06/11 05:20:48;;;;;;;7.60;6.90;;;;;;;;;;5014409;28;20409;-62
2023/06/11 05:23:15;;;;;;;7.32;6.65;;;;;;;;;;5013864;28;20029;-61
2023/06/11 05:25:46;;;;;;;7.57;6.90;;;;;;;;;;5014324;28;20034;-61
2023/06/11 05:28:13;;;;;;;7.43;6.32;;;;;;;;;;4997697;28;20029;-62
2023/06/11 05:30:39;;;;;;;7.30;6.65;;;;;;;;;;5014195;28;20041;-60
2023/06/11 05:33:07;;;;;;;7.05;5.50;;;;;;;;;;5014315;28;20053;-60
2023/06/11 05:35:32;;;;;;;7.50;6.70;;;;;;;;;;5014183;28;20036;-60
2023/06/11 05:38:03;;;;;;;6.28;5.78;;;;;;;;;;5015334;28;20093;-61
2023/06/11 05:40:30;;;;;;;6.88;6.20;;;;;;;;;;5013917;28;20030;-60
2023/06/11 05:42:56;;;;;;;7.18;6.68;;;;;;;;;;5014265;28;20053;-68
2023/06/11 05:45:21;;;;;;;6.03;5.63;;;;;;;;;;5014139;28;20049;-60
2023/06/11 05:47:48;;;;;;;6.35;5.47;;;;;;;;;;5014497;28;20032;-64
2023/06/11 05:50:13;;;;;;;5.97;5.40;;;;;;;;;;5013671;28;20022;-64
2023/06/11 05:52:38;;;;;;;6.90;6.30;;;;;;;;;;5013742;28;20036;-62
2023/06/11 05:55:06;;;;;;;7.00;6.40;;;;;;;;;;5013479;28;20033;-69
2023/06/11 05:57:33;;;;;;;6.72;6.10;;;;;;;;;;5013778;28;20109;-69
2023/06/11 05:59:58;;;;;;;6.45;5.45;;;;;;;;;;5013263;28;20029;-69
2023/06/11 06:02:24;;;;;;;7.53;5.28;;;;;;;;;;5012984;28;20385;-70
2023/06/11 06:04:49;;;;;;;6.20;5.65;;;;;;;;;;5012731;28;20485;-67
2023/06/11 06:07:16;;;;;;;6.53;5.30;;;;;;;;;;5016004;28;20041;-61
2023/06/11 06:09:41;;;;;;;5.88;5.40;;;;;;;;;;5016716;28;20377;-68
2023/06/11 06:12:07;;;;;;;6.95;5.70;;;;;;;;;;5016609;28;20029;-67
2023/06/11 06:14:33;;;;;;;6.82;6.18;;;;;;;;;;5015908;28;20032;-68
2023/06/11 06:16:58;;;;;;;7.65;6.07;;;;;;;;;;5015515;28;20024;-68
2023/06/11 06:19:28;;;;;;;6.78;6.22;;;;;;;;;;5015846;28;20111;-67
2023/06/11 06:21:54;;;;;;;6.25;5.65;;;;;;;;;;5032931;28;20061;-68
2023/06/11 06:24:19;;;;;;;6.07;5.65;;;;;;;;;;5015767;28;20029;-67
2023/06/11 06:26:47;;;;;;;6.20;5.70;;;;;;;;;;5016005;28;20461;-68
2023/06/11 06:29:13;;;;;;;6.40;5.85;;;;;;;;;;5015333;28;20032;-68
2023/06/11 06:31:40;;;;;;;5.97;5.47;;;;;;;;;;5033556;28;20025;-68
2023/06/11 06:34:07;;;;;;;5.90;5.40;;;;;;;;;;5016139;28;20021;-68
2023/06/11 06:36:35;;;;;;;8.77;5.75;;;;;;;;;;5015961;28;20462;-68
2023/06/11 06:39:01;;;;;;;6.30;5.80;;;;;;;;;;5015754;28;20068;-68
2023/06/11 06:41:27;;;;;;;5.68;5.28;;;;;;;;;;5015011;28;20021;-68
2023/06/11 06:43:53;;;;;;;6.22;5.63;;;;;;;;;;5015690;28;20364;-68
2023/06/11 06:46:19;;;;;;;6.82;5.88;;;;;;;;;;5015509;28;20037;-66
2023/06/11 06:48:46;;;;;;;6.95;5.38;;;;;;;;;;5016283;28;20029;-68
2023/06/11 06:51:13;;;;;;;9.10;5.35;;;;;;;;;;5000180;28;20385;-69
2023/06/11 06:53:41;;;;;;;8.43;5.50;;;;;;;;;;5000426;28;20079;-69
2023/06/11 06:56:09;;;;;;;5.80;5.30;;;;;;;;;;5015559;28;20036;-69
2023/06/11 06:58:34;;;;;;;5.22;4.82;;;;;;;;;;5015617;28;20033;-69
2023/06/11 07:01:00;;;;;;;6.35;5.78;;;;;;;;;;5015560;28;20048;-69
2023/06/11 07:03:25;;;;;;;5.47;5.07;;;;;;;;;;5032555;28;20029;-69
2023/06/11 07:05:51;;;;;;;5.63;5.13;;;;;;;;;;5014754;28;20108;-69
2023/06/11 07:08:17;;;;;;;6.07;5.47;;;;;;;;;;5015411;28;20120;-68
2023/06/11 07:10:51;;;;;;;5.35;4.90;;;;;;;;;;5015133;28;20025;-69
2023/06/11 07:13:22;;;;;;;6.55;5.25;;;;;;;;;;5014190;28;20029;-69
2023/06/11 07:15:50;;;;;;;5.50;5.00;;;;;;;;;;5017681;28;20477;-69
2023/06/11 07:18:17;;;;;;;5.20;4.80;;;;;;;;;;5018967;28;20030;-69
2023/06/11 07:20:43;;;;;;;5.75;5.30;;;;;;;;;;5036426;28;20469;-69
2023/06/11 07:23:11;;;;;;;5.80;5.30;;;;;;;;;;5018709;28;20033;-69
2023/06/11 07:25:37;;;;;;;6.50;5.38;;;;;;;;;;5018749;28;20076;-69
2023/06/11 07:28:10;;;;;;;7.40;5.60;;;;;;;;;;5018715;28;20508;-69
2023/06/11 07:30:36;;;;;;;5.22;4.70;;;;;;;;;;5018652;28;20075;-69
2023/06/11 07:33:01;;;;;;;5.90;5.40;;;;;;;;;;5035642;28;20492;-69
2023/06/11 07:35:27;;;;;;;5.50;4.95;;;;;;;;;;5018709;28;20427;-69
2023/06/11 07:37:53;;;;;;;5.82;5.32;;;;;;;;;;5018722;28;20068;-69
2023/06/11 07:40:19;;;;;;;5.28;4.80;;;;;;;;;;5019283;28;20033;-69
2023/06/11 07:42:45;;;;;;;5.57;5.20;;;;;;;;;;5019103;28;20029;-69
2023/06/11 07:45:11;;;;;;;5.85;5.38;;;;;;;;;;5019750;28;20059;-69
2023/06/11 07:47:37;;;;;;;6.80;5.25;;;;;;;;;;5002823;28;20025;-69
2023/06/11 07:50:03;;;;;;;5.57;5.05;;;;;;;;;;5019040;28;20495;-69
2023/06/11 07:52:28;;;;;;;5.22;4.82;;;;;;;;;;5037073;28;20021;-69
2023/06/11 07:54:54;;;;;;;7.22;4.95;;;;;;;;;;5019187;28;20034;-69
2023/06/11 07:57:20;;;;;;;7.35;5.00;;;;;;;;;;5036554;28;20112;-69
2023/06/11 07:59:46;;;;;;;6.85;4.80;;;;;;;;;;5036629;28;20032;-69
2023/06/11 08:02:11;;;;;;;5.00;4.70;;;;;;;;;;5036491;28;20034;-69
2023/06/11 08:04:38;;;;;;;6.32;4.45;;;;;;;;;;5036501;28;20128;-69
2023/06/11 08:07:04;;;;;;;5.65;4.95;;;;;;;;;;5002348;28;20037;-69
2023/06/11 08:09:30;;;;;;;5.72;5.32;;;;;;;;;;5055353;22;20057;-69
2023/06/11 08:11:56;;;;;;;5.60;5.10;;;;;;;;;;5067345;22;20139;-69
2023/06/11 08:14:21;;;;;;;6.00;4.93;;;;;;;;;;5056202;28;20075;-69
2023/06/11 08:16:46;;;;;;;6.13;5.10;;;;;;;;;;5056847;28;20029;-69
2023/06/11 08:19:12;;;;;;;5.22;4.82;;;;;;;;;;5056169;28;20025;-70
2023/06/11 08:21:38;;;;;;;5.25;4.75;;;;;;;;;;5038036;28;20074;-70
2023/06/11 08:24:05;;;;;;;5.22;4.82;;;;;;;;;;5056079;28;20025;-70
2023/06/11 08:26:30;;;;;;;5.70;5.30;;;;;;;;;;5037287;28;20017;-70
2023/06/11 08:28:56;;;;;;;5.82;4.47;;;;;;;;;;5056336;28;20033;-69
2023/06/11 08:31:21;;;;;;;6.07;4.63;;;;;;;;;;5056234;28;20175;-69
2023/06/11 08:33:47;;;;;;;7.35;4.57;;;;;;;;;;5056150;28;20218;-69
2023/06/11 08:36:12;;;;;;;5.22;4.82;;;;;;;;;;5055868;28;20492;-69
2023/06/11 08:38:37;;;;;;;4.80;4.40;;;;;;;;;;5055845;28;20392;-69
2023/06/11 08:41:03;;;;;;;5.68;4.15;;;;;;;;;;5056306;28;20467;-70
2023/06/11 08:43:28;;;;;;;6.63;4.65;;;;;;;;;;5054297;28;20086;-70
2023/06/11 08:45:53;;;;;;;4.82;4.13;;;;;;;;;;5055679;28;20049;-70
2023/06/11 08:48:20;;;;;;;5.97;4.35;;;;;;;;;;5037767;28;20488;-69
2023/06/11 08:50:47;;;;;;;5.32;4.53;;;;;;;;;;5037876;28;20033;-69
2023/06/11 08:53:12;;;;;;;4.47;3.97;;;;;;;;;;5056115;28;20465;-69
2023/06/11 08:55:38;;;;;;;4.70;4.28;;;;;;;;;;5037612;28;20060;-69
2023/06/11 08:58:03;;;;;;;4.28;3.97;;;;;;;;;;5055777;28;20104;-69
2023/06/11 09:00:29;;;;;;;6.32;4.63;;;;;;;;;;5037712;28;20037;-69
2023/06/11 09:02:54;;;;;;;5.88;5.15;;;;;;;;;;5055219;28;20055;-69
2023/06/11 09:05:19;;;;;;;5.60;4.32;;;;;;;;;;5055561;28;20025;-69
2023/06/11 09:07:51;;;;;;;4.90;4.55;;;;;;;;;;5054149;28;20033;-69
2023/06/11 09:10:17;;;;;;;5.57;4.40;;;;;;;;;;5055641;28;20024;-69
2023/06/11 09:12:42;;;;;;;4.85;4.22;;;;;;;;;;5037442;28;20040;-69
2023/06/11 09:15:09;;;;;;;5.63;4.80;;;;;;;;;;5054495;28;20496;-69
2023/06/11 09:17:35;;;;;;;8.63;5.00;;;;;;;;;;5054804;28;20473;-69
2023/06/11 09:20:02;;;;;;;5.10;4.43;;;;;;;;;;5037708;28;20468;-69
2023/06/11 09:22:28;;;;;;;4.90;4.45;;;;;;;;;;5054299;28;20374;-69
2023/06/11 09:24:54;;;;;;;7.20;4.13;;;;;;;;;;5054920;28;20074;-69
2023/06/11 09:27:22;;;;;;;4.35;3.95;;;;;;;;;;5055184;28;20029;-69
2023/06/11 09:29:47;;;;;;;4.85;4.20;;;;;;;;;;5053964;28;20118;-69
2023/06/11 09:32:13;;;;;;;4.40;4.07;;;;;;;;;;5020383;28;20033;-69
2023/06/11 09:34:40;;;;;;;3.95;3.65;;;;;;;;;;5054804;28;20091;-69
2023/06/11 09:37:09;;;;;;;4.68;3.80;;;;;;;;;;5055018;28;20128;-69
2023/06/11 09:39:34;;;;;;;4.57;4.28;;;;;;;;;;5054760;28;20025;-69
2023/06/11 09:42:00;;;;;;;4.95;4.40;;;;;;;;;;5054849;28;20013;-69
2023/06/11 09:44:27;;;;;;;5.20;4.25;;;;;;;;;;5054846;28;20033;-69
2023/06/11 09:46:52;;;;;;;4.97;4.57;;;;;;;;;;5053793;28;20115;-70
2023/06/11 09:49:17;;;;;;;4.20;3.85;;;;;;;;;;5054430;28;20017;-70
2023/06/11 09:51:43;;;;;;;3.92;3.63;;;;;;;;;;5053255;28;20057;-69
2023/06/11 09:54:09;;;;;;;4.20;3.83;;;;;;;;;;5054425;28;20028;-69
2023/06/11 09:56:37;;;;;;;4.10;3.80;;;;;;;;;;5036393;28;20369;-69
2023/06/11 09:59:03;;;;;;;4.30;4.00;;;;;;;;;;5054585;28;20081;-69
2023/06/11 10:01:29;;;;;;;7.68;4.13;;;;;;;;;;5054265;28;20116;-69
2023/06/11 10:03:58;;;;;;;4.03;3.72;;;;;;;;;;5036939;28;20036;-69
2023/06/11 10:06:25;;;;;;;3.85;3.55;;;;;;;;;;5036328;28;20047;-69
2023/06/11 10:08:51;;;;;;;7.05;4.18;;;;;;;;;;5054368;28;20029;-69
2023/06/11 10:11:20;;;;;;;4.20;3.80;;;;;;;;;;5041921;28;20567;-69
2023/06/11 10:13:55;;;;;;;5.35;4.80;;;;;;;;;;5053784;28;20480;-69
2023/06/11 10:16:20;;;;;;;7.25;5.30;;;;;;;;;;5053780;28;20041;-69
2023/06/11 10:18:46;;;;;;;9.82;7.43;;;;;;;;;;5053695;28;20514;-69
2023/06/11 10:21:11;;;;;;;15.85;13.55;;;;;;;;;;5053573;28;20025;-69
2023/06/11 10:23:37;;;;;;;20.60;16.15;;;;;;;;;;5053651;28;20144;-69
2023/06/11 10:26:03;;;;;;;9.65;8.60;;;;;;;;;;5054111;28;20033;-69
2023/06/11 10:28:35;;;;;;;4.15;3.75;;;;;;;;;;5053766;28;20103;-69
2023/06/11 10:31:00;;;;;;;5.25;4.20;;;;;;;;;;5053701;28;20048;-69
2023/06/11 10:36:07;;;;;;;4.40;4.00;;;;;;;;;;5060447;22;20079;-69
2023/06/11 10:38:37;;;;;;;5.28;4.78;;;;;;;;;;5035811;28;20508;-69
2023/06/11 10:41:05;;;;;;;5.57;4.18;;;;;;;;;;5053663;28;20017;-69
2023/06/11 10:43:34;;;;;;;5.25;4.95;;;;;;;;;;5053762;28;20472;-69
2023/06/11 10:45:59;;;;;;;5.20;4.68;;;;;;;;;;5053885;28;20091;-69
2023/06/11 10:48:29;;;;;;;4.18;3.88;;;;;;;;;;5053477;28;20108;-69
2023/06/11 10:51:07;;;;;;;3.58;3.28;;;;;;;;;;5043011;22;20045;-69
2023/06/11 10:53:37;;;;;;;4.20;3.80;;;;;;;;;;5033807;28;20038;-69
2023/06/11 10:56:02;;;;;;;3.42;3.20;;;;;;;;;;5033635;28;20116;-69
2023/06/11 10:58:33;;;;;;;3.92;3.50;;;;;;;;;;5033828;28;20503;-70
2023/06/11 11:01:00;;;;;;;3.95;3.58;;;;;;;;;;5032648;28;20029;-69
2023/06/11 11:03:30;;;;;;;5.30;3.53;;;;;;;;;;5032257;28;20496;-69
2023/06/11 11:05:55;;;;;;;4.63;3.65;;;;;;;;;;5033410;28;20030;-70
2023/06/11 11:08:21;;;;;;;4.05;3.65;;;;;;;;;;5032199;28;20037;-70
2023/06/11 11:10:46;;;;;;;4.13;3.70;;;;;;;;;;5032155;28;20021;-69
2023/06/11 11:13:11;;;;;;;3.65;3.35;;;;;;;;;;5033690;28;20477;-69
2023/06/11 11:15:37;;;;;;;4.53;4.10;;;;;;;;;;5048662;28;20120;-69
2023/06/11 11:18:02;;;;;;;4.13;3.75;;;;;;;;;;5032222;28;20553;-69
2023/06/11 11:20:30;;;;;;;4.47;4.07;;;;;;;;;;5033669;28;20372;-69
2023/06/11 11:22:56;;;;;;;4.47;3.63;;;;;;;;;;5033460;28;20068;-70
2023/06/11 11:25:23;;;;;;;3.78;3.47;;;;;;;;;;5033485;28;20037;-69
2023/06/11 11:27:49;;;;;;;3.90;3.60;;;;;;;;;;5032421;28;20034;-69
2023/06/11 11:30:15;;;;;;;3.78;3.47;;;;;;;;;;5033298;28;20466;-69
2023/06/11 11:32:40;;;;;;;4.05;3.65;;;;;;;;;;5033368;28;20033;-69
2023/06/11 11:35:07;;;;;;;4.93;3.50;;;;;;;;;;5033497;28;20030;-69
2023/06/11 11:37:32;;;;;;;3.90;3.60;;;;;;;;;;5031975;28;20128;-69
2023/06/11 11:40:06;;;;;;;3.67;3.20;;;;;;;;;;5033178;28;20111;-69
2023/06/11 11:42:32;;;;;;;3.22;2.92;;;;;;;;;;5033393;28;20033;-69
2023/06/11 11:44:57;;;;;;;5.40;3.25;;;;;;;;;;5033178;28;20017;-69
2023/06/11 11:47:26;;;;;;;4.60;3.97;;;;;;;;;;5033124;28;20032;-69
2023/06/11 11:49:52;;;;;;;3.75;3.40;;;;;;;;;;5031766;28;20500;-69
2023/06/11 11:52:17;;;;;;;5.35;3.40;;;;;;;;;;5052580;28;20040;-69
2023/06/11 11:54:44;;;;;;;3.95;3.63;;;;;;;;;;5053227;28;20063;-69
2023/06/11 11:57:09;;;;;;;4.05;3.75;;;;;;;;;;5053200;28;20033;-69
2023/06/11 11:59:38;;;;;;;9.45;3.70;;;;;;;;;;5051646;28;20040;-69
2023/06/11 12:02:03;;;;;;;4.03;3.15;;;;;;;;;;5054800;28;20041;-70
2023/06/11 12:04:38;;;;;;;3.70;3.50;;;;;;;;;;5056789;28;20021;-69
2023/06/11 12:07:10;;;;;;;6.78;3.60;;;;;;;;;;5056403;28;20025;-69
2023/06/11 12:09:37;;;;;;;3.40;3.20;;;;;;;;;;5056412;28;20037;-69
2023/06/11 12:12:03;;;;;;;3.78;3.53;;;;;;;;;;5056643;28;20025;-69
2023/06/11 12:14:28;;;;;;;3.75;3.45;;;;;;;;;;5056591;28;20094;-69
2023/06/11 12:16:54;;;;;;;4.00;3.47;;;;;;;;;;5055385;28;20411;-69
2023/06/11 12:19:19;;;;;;;3.70;3.40;;;;;;;;;;5055001;28;20029;-69
2023/06/11 12:21:45;;;;;;;3.60;3.20;;;;;;;;;;5056099;28;20083;-69
2023/06/11 12:24:12;;;;;;;3.42;3.22;;;;;;;;;;5037261;28;20116;-69
2023/06/11 12:26:40;;;;;;;4.53;3.90;;;;;;;;;;5037307;28;20104;-70
2023/06/11 12:29:06;;;;;;;3.17;2.88;;;;;;;;;;5056151;28;20059;-69
2023/06/11 12:31:31;;;;;;;3.40;3.08;;;;;;;;;;5055060;28;20021;-69
2023/06/11 12:33:56;;;;;;;4.35;3.42;;;;;;;;;;5054740;28;20536;-69
2023/06/11 12:36:21;;;;;;;4.93;3.40;;;;;;;;;;5056474;28;20388;-69
2023/06/11 12:38:47;;;;;;;8.90;4.40;;;;;;;;;;5055876;28;20385;-69
2023/06/11 12:41:12;;;;;;;5.20;4.03;;;;;;;;;;5055812;28;20025;-69
2023/06/11 12:43:38;;;;;;;3.63;3.33;;;;;;;;;;5055986;28;20111;-69
2023/06/11 12:46:03;;;;;;;3.70;3.40;;;;;;;;;;5055706;28;20025;-69
2023/06/11 12:48:28;;;;;;;5.70;3.72;;;;;;;;;;5055441;28;20029;-69
2023/06/11 12:50:54;;;;;;;4.80;4.32;;;;;;;;;;5055832;28;20041;-69
2023/06/11 12:53:19;;;;;;;3.90;3.13;;;;;;;;;;5054977;28;20025;-69
2023/06/11 12:55:44;;;;;;;5.72;3.60;;;;;;;;;;5055505;28;20032;-69
2023/06/11 12:58:10;;;;;;;3.47;3.20;;;;;;;;;;5055492;28;20035;-69
2023/06/11 13:00:35;;;;;;;3.97;3.53;;;;;;;;;;5055424;28;20476;-69
2023/06/11 13:03:00;;;;;;;3.75;3.30;;;;;;;;;;5054095;28;20034;-69
2023/06/11 13:05:26;;;;;;;3.60;3.33;;;;;;;;;;5055297;28;20071;-69
2023/06/11 13:07:53;;;;;;;6.15;3.30;;;;;;;;;;5055605;28;20483;-69
2023/06/11 13:10:22;;;;;;;5.13;3.40;;;;;;;;;;5054584;28;20428;-69
2023/06/11 13:12:47;;;;;;;4.30;4.00;;;;;;;;;;5055151;28;20431;-69
2023/06/11 13:15:12;;;;;;;6.30;4.13;;;;;;;;;;5055161;28;20025;-69
2023/06/11 13:17:38;;;;;;;6.18;3.92;;;;;;;;;;5055717;28;20025;-69
2023/06/11 13:20:04;;;;;;;4.22;3.92;;;;;;;;;;5055399;28;20116;-69
2023/06/11 13:22:29;;;;;;;4.47;3.13;;;;;;;;;;5037501;28;20100;-69
2023/06/11 13:24:55;;;;;;;4.30;3.90;;;;;;;;;;5055038;28;20060;-69
2023/06/11 13:27:21;;;;;;;3.25;2.97;;;;;;;;;;5055274;28;20483;-69
2023/06/11 13:29:46;;;;;;;3.22;3.00;;;;;;;;;;5037328;28;20128;-69
2023/06/11 13:32:12;;;;;;;4.00;2.88;;;;;;;;;;5055594;28;20040;-69
2023/06/11 13:34:37;;;;;;;3.75;3.55;;;;;;;;;;5055112;28;20023;-69
2023/06/11 13:37:03;;;;;;;4.15;3.67;;;;;;;;;;5053536;28;20082;-69
2023/06/11 13:39:28;;;;;;;3.70;3.35;;;;;;;;;;5054600;28;20029;-69
2023/06/11 13:41:53;;;;;;;4.43;3.78;;;;;;;;;;5054851;28;20033;-69
2023/06/11 13:44:19;;;;;;;5.45;4.90;;;;;;;;;;5054650;28;20388;-70
2023/06/11 13:46:45;;;;;;;8.38;5.68;;;;;;;;;;5054834;28;20468;-69
2023/06/11 13:49:11;;;;;;;4.03;3.72;;;;;;;;;;5036698;28;20503;-69
2023/06/11 13:51:36;;;;;;;6.05;5.60;;;;;;;;;;5054371;28;20037;-69
2023/06/11 13:54:02;;;;;;;5.55;5.20;;;;;;;;;;5053567;28;20037;-69
2023/06/11 13:56:27;;;;;;;4.40;4.10;;;;;;;;;;5053816;28;20468;-69
2023/06/11 13:58:52;;;;;;;6.80;3.80;;;;;;;;;;5036832;28;20427;-69
2023/06/11 14:01:18;;;;;;;4.53;3.35;;;;;;;;;;5054627;28;20037;-69
2023/06/11 14:03:43;;;;;;;7.50;4.13;;;;;;;;;;5036331;28;20083;-69
2023/06/11 14:06:08;;;;;;;5.35;4.20;;;;;;;;;;5054165;28;20493;-69
2023/06/11 14:08:34;;;;;;;3.90;3.60;;;;;;;;;;5054453;28;20071;-69
2023/06/11 14:10:59;;;;;;;3.42;3.22;;;;;;;;;;5054378;28;20346;-69
2023/06/11 14:13:24;;;;;;;4.20;3.60;;;;;;;;;;5054379;28;20061;-69
2023/06/11 14:15:50;;;;;;;4.38;3.97;;;;;;;;;;5036083;28;20032;-69
2023/06/11 14:18:16;;;;;;;4.55;3.95;;;;;;;;;;5035996;28;20029;-69
2023/06/11 14:20:42;;;;;;;4.07;3.78;;;;;;;;;;5054388;28;20013;-69
2023/06/11 14:23:07;;;;;;;3.67;3.38;;;;;;;;;;5035942;28;20064;-68
2023/06/11 14:25:32;;;;;;;3.55;3.30;;;;;;;;;;5035163;28;20060;-66
2023/06/11 14:27:58;;;;;;;3.75;3.35;;;;;;;;;;5053916;28;20048;-66
2023/06/11 14:30:24;;;;;;;3.38;3.08;;;;;;;;;;5053392;28;20033;-65
2023/06/11 14:32:50;;;;;;;5.07;3.40;;;;;;;;;;5053056;28;20028;-65
2023/06/11 14:35:15;;;;;;;3.83;3.35;;;;;;;;;;5053409;28;20035;-65
2023/06/11 14:37:40;;;;;;;3.00;2.80;;;;;;;;;;5053379;28;20435;-69
2023/06/11 14:40:08;;;;;;;4.00;3.38;;;;;;;;;;5053137;28;20029;-69
2023/06/11 14:42:33;;;;;;;3.75;3.50;;;;;;;;;;5052442;28;20039;-70
2023/06/11 14:45:02;;;;;;;5.10;3.60;;;;;;;;;;5053225;28;20020;-67